sensor_id;sensor_type;location;lat;lon;timestamp;P1;durP1;ratioP1;P2;durP2;ratioP2
15669;SDS011;18524;45.190;5.732;2023-12-20T00:03:07;16.63;;;13.90;;
15669;SDS011;18524;45.190;5.732;2023-12-20T00:07:57;18.23;;;14.40;;
15669;SDS011;18524;45.190;5.732;2023-12-20T00:12:48;20.80;;;15.27;;
15669;SDS011;18524;45.190;5.732;2023-12-20T00:17:38;20.07;;;15.00;;
15669;SDS011;18524;45.190;5.732;2023-12-20T00:22:28;21.93;;;15.60;;
15669;SDS011;18524;45.190;5.732;2023-12-20T00:27:19;18.07;;;13.83;;
15669;SDS011;18524;45.190;5.732;2023-12-20T00:32:09;19.40;;;13.73;;
15669;SDS011;18524;45.190;5.732;2023-12-20T00:36:59;19.97;;;14.77;;
15669;SDS011;18524;45.190;5.732;2023-12-20T00:41:50;18.87;;;13.83;;
15669;SDS011;18524;45.190;5.732;2023-12-20T00:46:40;20.43;;;14.87;;
15669;SDS011;18524;45.190;5.732;2023-12-20T00:51:30;19.60;;;14.23;;
15669;SDS011;18524;45.190;5.732;2023-12-20T00:56:21;22.97;;;16.37;;
15669;SDS011;18524;45.190;5.732;2023-12-20T01:01:11;19.67;;;15.67;;
15669;SDS011;18524;45.190;5.732;2023-12-20T01:06:01;26.03;;;18.50;;
15669;SDS011;18524;45.190;5.732;2023-12-20T01:10:52;20.00;;;14.73;;
15669;SDS011;18524;45.190;5.732;2023-12-20T01:15:42;21.00;;;14.77;;
15669;SDS011;18524;45.190;5.732;2023-12-20T01:20:33;20.70;;;15.73;;
15669;SDS011;18524;45.190;5.732;2023-12-20T01:25:23;21.77;;;15.07;;
15669;SDS011;18524;45.190;5.732;2023-12-20T01:30:14;20.47;;;15.93;;
15669;SDS011;18524;45.190;5.732;2023-12-20T01:35:04;20.07;;;15.57;;
15669;SDS011;18524;45.190;5.732;2023-12-20T01:39:55;21.10;;;15.40;;
15669;SDS011;18524;45.190;5.732;2023-12-20T01:44:45;18.83;;;14.70;;
15669;SDS011;18524;45.190;5.732;2023-12-20T01:49:36;17.93;;;14.10;;
15669;SDS011;18524;45.190;5.732;2023-12-20T01:54:27;20.03;;;15.50;;
15669;SDS011;18524;45.190;5.732;2023-12-20T01:59:18;21.50;;;16.37;;
15669;SDS011;18524;45.190;5.732;2023-12-20T02:04:10;23.03;;;16.90;;
15669;SDS011;18524;45.190;5.732;2023-12-20T02:09:00;21.40;;;16.83;;
15669;SDS011;18524;45.190;5.732;2023-12-20T02:13:51;22.23;;;16.00;;
15669;SDS011;18524;45.190;5.732;2023-12-20T02:18:43;22.13;;;16.93;;
15669;SDS011;18524;45.190;5.732;2023-12-20T02:23:34;23.40;;;17.27;;
15669;SDS011;18524;45.190;5.732;2023-12-20T02:28:24;22.23;;;17.33;;
15669;SDS011;18524;45.190;5.732;2023-12-20T02:33:15;26.83;;;18.80;;
15669;SDS011;18524;45.190;5.732;2023-12-20T02:38:05;26.13;;;18.13;;
15669;SDS011;18524;45.190;5.732;2023-12-20T02:42:55;25.47;;;17.37;;
15669;SDS011;18524;45.190;5.732;2023-12-20T02:47:46;26.97;;;18.63;;
15669;SDS011;18524;45.190;5.732;2023-12-20T02:52:36;24.37;;;17.90;;
15669;SDS011;18524;45.190;5.732;2023-12-20T02:57:26;23.77;;;17.60;;
15669;SDS011;18524;45.190;5.732;2023-12-20T03:02:17;26.07;;;17.63;;
15669;SDS011;18524;45.190;5.732;2023-12-20T03:07:07;22.83;;;16.03;;
15669;SDS011;18524;45.190;5.732;2023-12-20T03:11:57;22.40;;;16.93;;
15669;SDS011;18524;45.190;5.732;2023-12-20T03:16:51;23.00;;;16.73;;
15669;SDS011;18524;45.190;5.732;2023-12-20T03:21:42;25.93;;;16.30;;
15669;SDS011;18524;45.190;5.732;2023-12-20T03:26:32;23.43;;;17.07;;
15669;SDS011;18524;45.190;5.732;2023-12-20T03:31:22;22.27;;;17.37;;
15669;SDS011;18524;45.190;5.732;2023-12-20T03:36:13;22.73;;;17.10;;
15669;SDS011;18524;45.190;5.732;2023-12-20T03:41:04;21.53;;;17.63;;
15669;SDS011;18524;45.190;5.732;2023-12-20T03:45:54;23.90;;;17.07;;
15669;SDS011;18524;45.190;5.732;2023-12-20T03:50:44;21.83;;;17.40;;
15669;SDS011;18524;45.190;5.732;2023-12-20T03:55:35;24.00;;;17.63;;
15669;SDS011;18524;45.190;5.732;2023-12-20T04:00:25;24.17;;;17.73;;
15669;SDS011;18524;45.190;5.732;2023-12-20T04:05:15;22.53;;;17.60;;
15669;SDS011;18524;45.190;5.732;2023-12-20T04:10:06;22.13;;;17.40;;
15669;SDS011;18524;45.190;5.732;2023-12-20T04:14:57;20.67;;;16.80;;
15669;SDS011;18524;45.190;5.732;2023-12-20T04:19:47;23.00;;;17.57;;
15669;SDS011;18524;45.190;5.732;2023-12-20T04:24:38;22.67;;;17.33;;
15669;SDS011;18524;45.190;5.732;2023-12-20T04:29:28;23.83;;;18.23;;
15669;SDS011;18524;45.190;5.732;2023-12-20T04:34:18;23.17;;;17.03;;
15669;SDS011;18524;45.190;5.732;2023-12-20T04:39:09;24.20;;;18.23;;
15669;SDS011;18524;45.190;5.732;2023-12-20T04:44:01;23.50;;;17.37;;
15669;SDS011;18524;45.190;5.732;2023-12-20T04:48:52;24.03;;;17.43;;
15669;SDS011;18524;45.190;5.732;2023-12-20T04:53:42;26.27;;;18.70;;
15669;SDS011;18524;45.190;5.732;2023-12-20T04:58:32;24.50;;;18.00;;
15669;SDS011;18524;45.190;5.732;2023-12-20T05:03:23;27.00;;;18.60;;
15669;SDS011;18524;45.190;5.732;2023-12-20T05:08:13;24.53;;;18.33;;
15669;SDS011;18524;45.190;5.732;2023-12-20T05:13:04;26.60;;;18.63;;
15669;SDS011;18524;45.190;5.732;2023-12-20T05:17:54;26.50;;;18.83;;
15669;SDS011;18524;45.190;5.732;2023-12-20T05:22:44;24.53;;;19.10;;
15669;SDS011;18524;45.190;5.732;2023-12-20T05:27:35;24.50;;;18.73;;
15669;SDS011;18524;45.190;5.732;2023-12-20T05:32:25;26.13;;;19.60;;
15669;SDS011;18524;45.190;5.732;2023-12-20T05:37:15;27.20;;;19.73;;
15669;SDS011;18524;45.190;5.732;2023-12-20T05:42:06;26.67;;;19.43;;
15669;SDS011;18524;45.190;5.732;2023-12-20T05:46:56;27.13;;;19.40;;
15669;SDS011;18524;45.190;5.732;2023-12-20T05:51:47;25.67;;;19.67;;
15669;SDS011;18524;45.190;5.732;2023-12-20T05:56:37;25.77;;;18.80;;
15669;SDS011;18524;45.190;5.732;2023-12-20T06:01:28;24.13;;;18.67;;
15669;SDS011;18524;45.190;5.732;2023-12-20T06:06:18;29.13;;;20.53;;
15669;SDS011;18524;45.190;5.732;2023-12-20T06:11:08;28.30;;;20.60;;
15669;SDS011;18524;45.190;5.732;2023-12-20T06:15:59;24.57;;;19.73;;
15669;SDS011;18524;45.190;5.732;2023-12-20T06:20:49;27.17;;;20.27;;
15669;SDS011;18524;45.190;5.732;2023-12-20T06:25:39;27.97;;;19.77;;
15669;SDS011;18524;45.190;5.732;2023-12-20T06:30:30;25.40;;;19.53;;
15669;SDS011;18524;45.190;5.732;2023-12-20T06:35:22;26.03;;;19.77;;
15669;SDS011;18524;45.190;5.732;2023-12-20T06:40:13;27.30;;;20.23;;
15669;SDS011;18524;45.190;5.732;2023-12-20T06:45:03;27.47;;;20.23;;
15669;SDS011;18524;45.190;5.732;2023-12-20T06:49:54;27.37;;;21.20;;
15669;SDS011;18524;45.190;5.732;2023-12-20T06:54:44;26.50;;;19.40;;
15669;SDS011;18524;45.190;5.732;2023-12-20T06:59:41;28.30;;;21.40;;
15669;SDS011;18524;45.190;5.732;2023-12-20T07:04:32;31.67;;;21.37;;
15669;SDS011;18524;45.190;5.732;2023-12-20T07:09:22;27.70;;;20.80;;
15669;SDS011;18524;45.190;5.732;2023-12-20T07:14:13;30.23;;;21.17;;
15669;SDS011;18524;45.190;5.732;2023-12-20T07:19:04;30.17;;;22.50;;
15669;SDS011;18524;45.190;5.732;2023-12-20T07:23:54;28.47;;;21.03;;
15669;SDS011;18524;45.190;5.732;2023-12-20T07:28:44;27.97;;;20.63;;
15669;SDS011;18524;45.190;5.732;2023-12-20T07:33:35;30.33;;;22.27;;
15669;SDS011;18524;45.190;5.732;2023-12-20T07:38:25;28.03;;;21.10;;
15669;SDS011;18524;45.190;5.732;2023-12-20T07:43:15;29.20;;;20.70;;
15669;SDS011;18524;45.190;5.732;2023-12-20T07:48:06;30.43;;;20.60;;
15669;SDS011;18524;45.190;5.732;2023-12-20T07:52:57;28.90;;;20.73;;
15669;SDS011;18524;45.190;5.732;2023-12-20T07:57:49;29.17;;;21.90;;
15669;SDS011;18524;45.190;5.732;2023-12-20T08:02:40;28.43;;;21.23;;
15669;SDS011;18524;45.190;5.732;2023-12-20T08:07:30;31.50;;;22.80;;
15669;SDS011;18524;45.190;5.732;2023-12-20T08:12:20;28.53;;;21.53;;
15669;SDS011;18524;45.190;5.732;2023-12-20T08:17:11;30.13;;;21.53;;
15669;SDS011;18524;45.190;5.732;2023-12-20T08:22:02;28.63;;;21.50;;
15669;SDS011;18524;45.190;5.732;2023-12-20T08:26:53;30.07;;;21.97;;
15669;SDS011;18524;45.190;5.732;2023-12-20T08:31:43;31.67;;;22.67;;
15669;SDS011;18524;45.190;5.732;2023-12-20T08:36:33;31.47;;;23.27;;
15669;SDS011;18524;45.190;5.732;2023-12-20T08:41:24;31.77;;;24.00;;
15669;SDS011;18524;45.190;5.732;2023-12-20T08:46:14;31.83;;;22.77;;
15669;SDS011;18524;45.190;5.732;2023-12-20T08:51:05;37.27;;;26.67;;
15669;SDS011;18524;45.190;5.732;2023-12-20T08:55:58;51.80;;;29.40;;
15669;SDS011;18524;45.190;5.732;2023-12-20T09:00:51;39.53;;;26.33;;
15669;SDS011;18524;45.190;5.732;2023-12-20T09:05:41;52.77;;;33.50;;
15669;SDS011;18524;45.190;5.732;2023-12-20T09:10:31;40.17;;;28.37;;
15669;SDS011;18524;45.190;5.732;2023-12-20T09:15:25;33.37;;;25.57;;
15669;SDS011;18524;45.190;5.732;2023-12-20T09:20:16;31.53;;;22.77;;
15669;SDS011;18524;45.190;5.732;2023-12-20T09:25:07;31.90;;;24.33;;
15669;SDS011;18524;45.190;5.732;2023-12-20T09:29:58;30.07;;;23.63;;
15669;SDS011;18524;45.190;5.732;2023-12-20T09:34:49;32.43;;;24.10;;
15669;SDS011;18524;45.190;5.732;2023-12-20T09:39:39;32.73;;;23.97;;
15669;SDS011;18524;45.190;5.732;2023-12-20T09:44:30;33.53;;;23.50;;
15669;SDS011;18524;45.190;5.732;2023-12-20T09:49:21;30.57;;;23.60;;
15669;SDS011;18524;45.190;5.732;2023-12-20T09:54:14;33.53;;;25.77;;
15669;SDS011;18524;45.190;5.732;2023-12-20T09:59:05;32.73;;;23.97;;
15669;SDS011;18524;45.190;5.732;2023-12-20T10:03:55;33.10;;;24.20;;
15669;SDS011;18524;45.190;5.732;2023-12-20T10:08:46;35.37;;;26.10;;
15669;SDS011;18524;45.190;5.732;2023-12-20T10:13:40;32.17;;;24.70;;
15669;SDS011;18524;45.190;5.732;2023-12-20T10:18:31;30.77;;;23.77;;
15669;SDS011;18524;45.190;5.732;2023-12-20T10:23:22;30.63;;;24.80;;
15669;SDS011;18524;45.190;5.732;2023-12-20T10:28:13;28.43;;;23.23;;
15669;SDS011;18524;45.190;5.732;2023-12-20T10:33:07;29.37;;;22.97;;
15669;SDS011;18524;45.190;5.732;2023-12-20T10:37:58;29.90;;;22.77;;
15669;SDS011;18524;45.190;5.732;2023-12-20T10:42:55;29.80;;;22.97;;
15669;SDS011;18524;45.190;5.732;2023-12-20T10:47:46;30.70;;;22.97;;
15669;SDS011;18524;45.190;5.732;2023-12-20T10:52:37;25.43;;;21.57;;
15669;SDS011;18524;45.190;5.732;2023-12-20T10:57:27;22.30;;;18.13;;
15669;SDS011;18524;45.190;5.732;2023-12-20T11:02:18;28.30;;;21.87;;
15669;SDS011;18524;45.190;5.732;2023-12-20T11:18:00;25.03;;;19.07;;
15669;SDS011;18524;45.190;5.732;2023-12-20T11:22:54;32.93;;;23.47;;
15669;SDS011;18524;45.190;5.732;2023-12-20T11:27:44;26.70;;;20.73;;
15669;SDS011;18524;45.190;5.732;2023-12-20T11:33:01;25.97;;;20.00;;
15669;SDS011;18524;45.190;5.732;2023-12-20T11:37:52;24.67;;;19.47;;
15669;SDS011;18524;45.190;5.732;2023-12-20T11:42:43;29.60;;;20.70;;
15669;SDS011;18524;45.190;5.732;2023-12-20T11:47:35;24.27;;;20.57;;
15669;SDS011;18524;45.190;5.732;2023-12-20T11:52:26;25.03;;;20.67;;
15669;SDS011;18524;45.190;5.732;2023-12-20T11:57:16;16.23;;;12.90;;
15669;SDS011;18524;45.190;5.732;2023-12-20T12:02:06;16.97;;;13.53;;
15669;SDS011;18524;45.190;5.732;2023-12-20T12:06:57;13.53;;;10.70;;
15669;SDS011;18524;45.190;5.732;2023-12-20T12:11:47;11.07;;;8.73;;
15669;SDS011;18524;45.190;5.732;2023-12-20T12:16:38;13.20;;;10.80;;
15669;SDS011;18524;45.190;5.732;2023-12-20T12:21:28;19.67;;;15.60;;
15669;SDS011;18524;45.190;5.732;2023-12-20T12:26:18;16.87;;;12.43;;
15669;SDS011;18524;45.190;5.732;2023-12-20T12:31:13;20.57;;;14.50;;
15669;SDS011;18524;45.190;5.732;2023-12-20T12:36:07;15.67;;;12.73;;
15669;SDS011;18524;45.190;5.732;2023-12-20T12:40:57;13.33;;;10.60;;
15669;SDS011;18524;45.190;5.732;2023-12-20T12:45:48;15.43;;;12.73;;
15669;SDS011;18524;45.190;5.732;2023-12-20T12:50:39;20.90;;;17.23;;
15669;SDS011;18524;45.190;5.732;2023-12-20T12:55:29;26.63;;;19.47;;
15669;SDS011;18524;45.190;5.732;2023-12-20T13:00:20;23.27;;;19.37;;
15669;SDS011;18524;45.190;5.732;2023-12-20T13:05:11;31.20;;;21.30;;
15669;SDS011;18524;45.190;5.732;2023-12-20T13:10:02;23.93;;;18.97;;
15669;SDS011;18524;45.190;5.732;2023-12-20T13:14:53;22.53;;;17.40;;
15669;SDS011;18524;45.190;5.732;2023-12-20T13:19:43;9.90;;;8.53;;
15669;SDS011;18524;45.190;5.732;2023-12-20T13:24:34;9.53;;;7.37;;
15669;SDS011;18524;45.190;5.732;2023-12-20T13:29:24;8.63;;;7.60;;
15669;SDS011;18524;45.190;5.732;2023-12-20T13:34:17;5.57;;;5.00;;
15669;SDS011;18524;45.190;5.732;2023-12-20T13:39:07;4.20;;;3.80;;
15669;SDS011;18524;45.190;5.732;2023-12-20T13:43:57;3.70;;;3.27;;
15669;SDS011;18524;45.190;5.732;2023-12-20T13:48:48;4.07;;;3.27;;
15669;SDS011;18524;45.190;5.732;2023-12-20T13:53:39;3.53;;;3.20;;
15669;SDS011;18524;45.190;5.732;2023-12-20T13:58:30;5.20;;;4.00;;
15669;SDS011;18524;45.190;5.732;2023-12-20T14:03:20;5.73;;;4.80;;
15669;SDS011;18524;45.190;5.732;2023-12-20T14:08:11;4.77;;;4.23;;
15669;SDS011;18524;45.190;5.732;2023-12-20T14:13:01;3.50;;;3.20;;
15669;SDS011;18524;45.190;5.732;2023-12-20T14:17:52;3.30;;;3.00;;
15669;SDS011;18524;45.190;5.732;2023-12-20T14:22:42;3.73;;;3.37;;
15669;SDS011;18524;45.190;5.732;2023-12-20T14:27:33;3.97;;;3.03;;
15669;SDS011;18524;45.190;5.732;2023-12-20T14:32:24;3.50;;;3.20;;
15669;SDS011;18524;45.190;5.732;2023-12-20T14:37:16;3.90;;;3.60;;
15669;SDS011;18524;45.190;5.732;2023-12-20T14:42:07;3.63;;;2.97;;
15669;SDS011;18524;45.190;5.732;2023-12-20T14:47:02;2.50;;;2.30;;
15669;SDS011;18524;45.190;5.732;2023-12-20T14:51:52;2.90;;;2.40;;
15669;SDS011;18524;45.190;5.732;2023-12-20T14:56:43;2.70;;;2.20;;
15669;SDS011;18524;45.190;5.732;2023-12-20T15:01:33;3.63;;;2.80;;
15669;SDS011;18524;45.190;5.732;2023-12-20T15:06:23;4.03;;;2.67;;
15669;SDS011;18524;45.190;5.732;2023-12-20T15:11:15;4.17;;;2.20;;
15669;SDS011;18524;45.190;5.732;2023-12-20T15:16:06;3.57;;;2.20;;
15669;SDS011;18524;45.190;5.732;2023-12-20T15:20:56;4.17;;;2.33;;
15669;SDS011;18524;45.190;5.732;2023-12-20T15:25:46;3.00;;;2.00;;
15669;SDS011;18524;45.190;5.732;2023-12-20T15:30:37;2.33;;;1.70;;
15669;SDS011;18524;45.190;5.732;2023-12-20T15:35:28;1.93;;;1.70;;
15669;SDS011;18524;45.190;5.732;2023-12-20T15:40:18;2.80;;;1.60;;
15669;SDS011;18524;45.190;5.732;2023-12-20T15:45:09;2.23;;;1.70;;
15669;SDS011;18524;45.190;5.732;2023-12-20T15:49:59;3.37;;;1.90;;
15669;SDS011;18524;45.190;5.732;2023-12-20T15:54:50;2.80;;;1.87;;
15669;SDS011;18524;45.190;5.732;2023-12-20T15:59:41;1.77;;;1.40;;
15669;SDS011;18524;45.190;5.732;2023-12-20T16:04:31;2.57;;;1.40;;
15669;SDS011;18524;45.190;5.732;2023-12-20T16:09:22;3.17;;;1.60;;
15669;SDS011;18524;45.190;5.732;2023-12-20T16:14:12;4.13;;;1.90;;
15669;SDS011;18524;45.190;5.732;2023-12-20T16:19:08;3.00;;;1.60;;
15669;SDS011;18524;45.190;5.732;2023-12-20T16:23:58;3.13;;;1.70;;
15669;SDS011;18524;45.190;5.732;2023-12-20T16:28:48;2.77;;;1.83;;
15669;SDS011;18524;45.190;5.732;2023-12-20T16:33:39;2.97;;;1.70;;
15669;SDS011;18524;45.190;5.732;2023-12-20T16:38:29;3.77;;;2.10;;
15669;SDS011;18524;45.190;5.732;2023-12-20T16:43:20;2.13;;;1.70;;
15669;SDS011;18524;45.190;5.732;2023-12-20T16:48:10;2.77;;;1.90;;
15669;SDS011;18524;45.190;5.732;2023-12-20T16:53:00;3.80;;;2.00;;
15669;SDS011;18524;45.190;5.732;2023-12-20T16:57:51;3.73;;;1.70;;
15669;SDS011;18524;45.190;5.732;2023-12-20T17:02:41;3.87;;;2.20;;
15669;SDS011;18524;45.190;5.732;2023-12-20T17:07:31;3.37;;;2.00;;
15669;SDS011;18524;45.190;5.732;2023-12-20T17:12:23;4.50;;;2.10;;
15669;SDS011;18524;45.190;5.732;2023-12-20T17:17:15;6.80;;;3.30;;
15669;SDS011;18524;45.190;5.732;2023-12-20T17:22:05;3.57;;;2.20;;
15669;SDS011;18524;45.190;5.732;2023-12-20T17:26:55;4.27;;;2.10;;
15669;SDS011;18524;45.190;5.732;2023-12-20T17:31:46;3.50;;;2.23;;
15669;SDS011;18524;45.190;5.732;2023-12-20T17:36:37;4.33;;;2.20;;
15669;SDS011;18524;45.190;5.732;2023-12-20T17:41:28;4.73;;;2.20;;
15669;SDS011;18524;45.190;5.732;2023-12-20T17:46:18;3.50;;;2.00;;
15669;SDS011;18524;45.190;5.732;2023-12-20T17:51:08;5.47;;;2.30;;
15669;SDS011;18524;45.190;5.732;2023-12-20T17:55:59;3.60;;;2.27;;
15669;SDS011;18524;45.190;5.732;2023-12-20T18:00:49;3.13;;;2.07;;
15669;SDS011;18524;45.190;5.732;2023-12-20T18:05:40;6.13;;;3.23;;
15669;SDS011;18524;45.190;5.732;2023-12-20T18:10:30;14.27;;;8.80;;
15669;SDS011;18524;45.190;5.732;2023-12-20T18:15:20;4.50;;;3.20;;
15669;SDS011;18524;45.190;5.732;2023-12-20T18:20:12;8.63;;;4.03;;
15669;SDS011;18524;45.190;5.732;2023-12-20T18:25:03;11.10;;;4.47;;
15669;SDS011;18524;45.190;5.732;2023-12-20T18:29:57;7.13;;;3.53;;
15669;SDS011;18524;45.190;5.732;2023-12-20T18:34:55;11.43;;;5.07;;
15669;SDS011;18524;45.190;5.732;2023-12-20T18:39:45;4.83;;;3.20;;
15669;SDS011;18524;45.190;5.732;2023-12-20T18:44:36;4.97;;;3.30;;
15669;SDS011;18524;45.190;5.732;2023-12-20T18:49:27;4.03;;;3.60;;
15669;SDS011;18524;45.190;5.732;2023-12-20T18:54:17;6.23;;;3.43;;
15669;SDS011;18524;45.190;5.732;2023-12-20T18:59:08;6.37;;;3.50;;
15669;SDS011;18524;45.190;5.732;2023-12-20T19:03:59;5.77;;;3.07;;
15669;SDS011;18524;45.190;5.732;2023-12-20T19:08:49;7.10;;;5.10;;
15669;SDS011;18524;45.190;5.732;2023-12-20T19:13:42;9.40;;;5.57;;
15669;SDS011;18524;45.190;5.732;2023-12-20T19:18:32;8.40;;;4.87;;
15669;SDS011;18524;45.190;5.732;2023-12-20T19:23:23;4.27;;;3.10;;
15669;SDS011;18524;45.190;5.732;2023-12-20T19:28:13;5.77;;;2.80;;
15669;SDS011;18524;45.190;5.732;2023-12-20T19:33:04;4.50;;;3.30;;
15669;SDS011;18524;45.190;5.732;2023-12-20T19:37:55;7.90;;;3.80;;
15669;SDS011;18524;45.190;5.732;2023-12-20T19:42:45;7.67;;;3.00;;
15669;SDS011;18524;45.190;5.732;2023-12-20T19:47:36;4.73;;;2.77;;
15669;SDS011;18524;45.190;5.732;2023-12-20T19:52:26;11.70;;;6.10;;
15669;SDS011;18524;45.190;5.732;2023-12-20T19:57:18;6.23;;;3.00;;
15669;SDS011;18524;45.190;5.732;2023-12-20T20:02:08;9.00;;;6.27;;
15669;SDS011;18524;45.190;5.732;2023-12-20T20:06:59;7.57;;;4.17;;
15669;SDS011;18524;45.190;5.732;2023-12-20T20:11:49;14.17;;;8.40;;
15669;SDS011;18524;45.190;5.732;2023-12-20T20:16:42;7.90;;;3.40;;
15669;SDS011;18524;45.190;5.732;2023-12-20T20:21:33;7.80;;;4.30;;
15669;SDS011;18524;45.190;5.732;2023-12-20T20:26:23;8.13;;;4.23;;
15669;SDS011;18524;45.190;5.732;2023-12-20T20:31:14;11.00;;;5.20;;
15669;SDS011;18524;45.190;5.732;2023-12-20T20:36:05;15.47;;;8.07;;
15669;SDS011;18524;45.190;5.732;2023-12-20T20:40:57;7.47;;;4.00;;
15669;SDS011;18524;45.190;5.732;2023-12-20T20:45:48;6.53;;;3.50;;
15669;SDS011;18524;45.190;5.732;2023-12-20T20:50:38;5.07;;;2.30;;
15669;SDS011;18524;45.190;5.732;2023-12-20T20:55:29;4.30;;;2.30;;
15669;SDS011;18524;45.190;5.732;2023-12-20T21:00:19;4.87;;;2.13;;
15669;SDS011;18524;45.190;5.732;2023-12-20T21:05:10;4.43;;;2.20;;
15669;SDS011;18524;45.190;5.732;2023-12-20T21:10:00;4.20;;;2.00;;
15669;SDS011;18524;45.190;5.732;2023-12-20T21:14:51;3.50;;;2.10;;
15669;SDS011;18524;45.190;5.732;2023-12-20T21:19:42;4.90;;;2.13;;
15669;SDS011;18524;45.190;5.732;2023-12-20T21:24:34;6.07;;;2.33;;
15669;SDS011;18524;45.190;5.732;2023-12-20T21:29:25;3.90;;;1.87;;
15669;SDS011;18524;45.190;5.732;2023-12-20T21:34:15;6.17;;;2.10;;
15669;SDS011;18524;45.190;5.732;2023-12-20T21:39:07;11.57;;;5.10;;
15669;SDS011;18524;45.190;5.732;2023-12-20T21:43:57;9.67;;;4.47;;
15669;SDS011;18524;45.190;5.732;2023-12-20T21:48:48;5.83;;;2.60;;
15669;SDS011;18524;45.190;5.732;2023-12-20T21:53:38;3.23;;;1.57;;
15669;SDS011;18524;45.190;5.732;2023-12-20T21:58:30;4.97;;;1.50;;
15669;SDS011;18524;45.190;5.732;2023-12-20T22:03:21;3.03;;;1.50;;
15669;SDS011;18524;45.190;5.732;2023-12-20T22:08:11;2.33;;;1.23;;
15669;SDS011;18524;45.190;5.732;2023-12-20T22:13:02;2.90;;;1.30;;
15669;SDS011;18524;45.190;5.732;2023-12-20T22:17:52;3.43;;;1.30;;
15669;SDS011;18524;45.190;5.732;2023-12-20T22:22:42;3.07;;;1.30;;
15669;SDS011;18524;45.190;5.732;2023-12-20T22:27:34;4.37;;;1.70;;
15669;SDS011;18524;45.190;5.732;2023-12-20T22:32:24;2.27;;;1.37;;
15669;SDS011;18524;45.190;5.732;2023-12-20T22:37:14;4.23;;;1.60;;
15669;SDS011;18524;45.190;5.732;2023-12-20T22:42:05;4.13;;;1.70;;
15669;SDS011;18524;45.190;5.732;2023-12-20T22:46:56;2.17;;;1.33;;
15669;SDS011;18524;45.190;5.732;2023-12-20T22:51:46;2.60;;;1.93;;
15669;SDS011;18524;45.190;5.732;2023-12-20T22:56:38;3.37;;;2.53;;
15669;SDS011;18524;45.190;5.732;2023-12-20T23:01:29;5.43;;;4.20;;
15669;SDS011;18524;45.190;5.732;2023-12-20T23:06:20;6.53;;;4.30;;
15669;SDS011;18524;45.190;5.732;2023-12-20T23:11:10;6.07;;;4.23;;
15669;SDS011;18524;45.190;5.732;2023-12-20T23:16:01;6.53;;;4.07;;
15669;SDS011;18524;45.190;5.732;2023-12-20T23:20:52;6.33;;;4.27;;
15669;SDS011;18524;45.190;5.732;2023-12-20T23:25:43;6.17;;;4.10;;
15669;SDS011;18524;45.190;5.732;2023-12-20T23:30:34;5.07;;;3.60;;
15669;SDS011;18524;45.190;5.732;2023-12-20T23:35:27;6.47;;;4.30;;
15669;SDS011;18524;45.190;5.732;2023-12-20T23:40:17;5.50;;;3.67;;
15669;SDS011;18524;45.190;5.732;2023-12-20T23:45:07;6.17;;;3.60;;
15669;SDS011;18524;45.190;5.732;2023-12-20T23:49:58;5.97;;;3.80;;
15669;SDS011;18524;45.190;5.732;2023-12-20T23:54:49;5.80;;;3.70;;
15669;SDS011;18524;45.190;5.732;2023-12-20T23:59:39;5.23;;;3.53;;
